sensor_id;sensor_type;location;lat;lon;timestamp;temperature;humidity
3492;DHT22;1760;52.480;13.422;2024-02-16T00:02:13;11.50;99.90
3492;DHT22;1760;52.480;13.422;2024-02-16T00:04:41;11.50;99.90
3492;DHT22;1760;52.480;13.422;2024-02-16T00:07:08;11.50;99.90
3492;DHT22;1760;52.480;13.422;2024-02-16T00:09:34;11.50;99.90
3492;DHT22;1760;52.480;13.422;2024-02-16T00:12:03;11.40;99.90
3492;DHT22;1760;52.480;13.422;2024-02-16T00:14:30;11.40;99.90
3492;DHT22;1760;52.480;13.422;2024-02-16T00:16:57;11.40;99.90
3492;DHT22;1760;52.480;13.422;2024-02-16T00:19:24;11.40;99.90
3492;DHT22;1760;52.480;13.422;2024-02-16T00:21:52;11.40;99.90
3492;DHT22;1760;52.480;13.422;2024-02-16T00:24:19;11.40;99.90
3492;DHT22;1760;52.480;13.422;2024-02-16T00:26:46;11.40;99.90
3492;DHT22;1760;52.480;13.422;2024-02-16T00:29:14;11.30;99.90
3492;DHT22;1760;52.480;13.422;2024-02-16T00:31:41;11.40;99.90
3492;DHT22;1760;52.480;13.422;2024-02-16T00:34:08;11.40;99.90
3492;DHT22;1760;52.480;13.422;2024-02-16T00:36:35;11.30;99.90
3492;DHT22;1760;52.480;13.422;2024-02-16T00:39:02;11.30;99.90
3492;DHT22;1760;52.480;13.422;2024-02-16T00:41:30;11.30;99.90
3492;DHT22;1760;52.480;13.422;2024-02-16T00:43:57;11.20;99.90
3492;DHT22;1760;52.480;13.422;2024-02-16T00:46:28;11.30;99.90
3492;DHT22;1760;52.480;13.422;2024-02-16T00:48:55;11.30;99.90
3492;DHT22;1760;52.480;13.422;2024-02-16T00:51:22;11.30;99.90
3492;DHT22;1760;52.480;13.422;2024-02-16T00:53:51;11.30;99.90
3492;DHT22;1760;52.480;13.422;2024-02-16T00:56:18;11.30;99.90
3492;DHT22;1760;52.480;13.422;2024-02-16T00:58:45;11.30;99.90
3492;DHT22;1760;52.480;13.422;2024-02-16T01:01:12;11.30;99.90
3492;DHT22;1760;52.480;13.422;2024-02-16T01:03:40;11.20;99.90
3492;DHT22;1760;52.480;13.422;2024-02-16T01:06:08;11.30;99.90
3492;DHT22;1760;52.480;13.422;2024-02-16T01:08:35;11.30;99.90
3492;DHT22;1760;52.480;13.422;2024-02-16T01:11:02;11.30;99.90
3492;DHT22;1760;52.480;13.422;2024-02-16T01:13:29;11.30;99.90
3492;DHT22;1760;52.480;13.422;2024-02-16T01:15:58;11.30;99.90
3492;DHT22;1760;52.480;13.422;2024-02-16T01:18:25;11.30;99.90
3492;DHT22;1760;52.480;13.422;2024-02-16T01:20:53;11.30;99.90
3492;DHT22;1760;52.480;13.422;2024-02-16T01:23:20;11.30;99.90
3492;DHT22;1760;52.480;13.422;2024-02-16T01:25:47;11.20;99.90
3492;DHT22;1760;52.480;13.422;2024-02-16T01:28:13;11.20;99.90
3492;DHT22;1760;52.480;13.422;2024-02-16T01:30:40;11.20;99.90
3492;DHT22;1760;52.480;13.422;2024-02-16T01:33:07;11.10;99.90
3492;DHT22;1760;52.480;13.422;2024-02-16T01:35:35;11.10;99.90
3492;DHT22;1760;52.480;13.422;2024-02-16T01:38:03;11.10;99.90
3492;DHT22;1760;52.480;13.422;2024-02-16T01:40:31;11.00;99.90
3492;DHT22;1760;52.480;13.422;2024-02-16T01:42:58;11.00;99.90
3492;DHT22;1760;52.480;13.422;2024-02-16T01:45:24;11.00;99.90
3492;DHT22;1760;52.480;13.422;2024-02-16T01:47:52;11.10;99.90
3492;DHT22;1760;52.480;13.422;2024-02-16T01:50:20;11.10;99.90
3492;DHT22;1760;52.480;13.422;2024-02-16T01:52:49;11.10;99.90
3492;DHT22;1760;52.480;13.422;2024-02-16T01:55:19;11.00;99.90
3492;DHT22;1760;52.480;13.422;2024-02-16T01:57:47;11.00;99.90
3492;DHT22;1760;52.480;13.422;2024-02-16T02:00:15;11.00;99.90
3492;DHT22;1760;52.480;13.422;2024-02-16T02:02:45;10.90;99.90
3492;DHT22;1760;52.480;13.422;2024-02-16T02:05:13;10.90;99.90
3492;DHT22;1760;52.480;13.422;2024-02-16T02:07:40;10.90;99.90
3492;DHT22;1760;52.480;13.422;2024-02-16T02:10:08;10.80;99.90
3492;DHT22;1760;52.480;13.422;2024-02-16T02:12:36;10.80;99.90
3492;DHT22;1760;52.480;13.422;2024-02-16T02:15:04;10.80;99.90
3492;DHT22;1760;52.480;13.422;2024-02-16T02:17:31;10.80;99.90
3492;DHT22;1760;52.480;13.422;2024-02-16T02:19:58;10.80;99.90
3492;DHT22;1760;52.480;13.422;2024-02-16T02:22:26;10.70;99.90
3492;DHT22;1760;52.480;13.422;2024-02-16T02:24:53;10.70;99.90
3492;DHT22;1760;52.480;13.422;2024-02-16T02:27:21;10.70;99.90
3492;DHT22;1760;52.480;13.422;2024-02-16T02:29:48;10.60;99.90
3492;DHT22;1760;52.480;13.422;2024-02-16T02:32:15;10.70;99.90
3492;DHT22;1760;52.480;13.422;2024-02-16T02:34:42;10.60;99.90
3492;DHT22;1760;52.480;13.422;2024-02-16T02:37:09;10.60;99.90
3492;DHT22;1760;52.480;13.422;2024-02-16T02:39:38;10.60;99.90
3492;DHT22;1760;52.480;13.422;2024-02-16T02:42:05;10.50;99.90
3492;DHT22;1760;52.480;13.422;2024-02-16T02:44:33;10.50;99.90
3492;DHT22;1760;52.480;13.422;2024-02-16T02:47:00;10.50;99.90
3492;DHT22;1760;52.480;13.422;2024-02-16T02:49:28;10.50;99.90
3492;DHT22;1760;52.480;13.422;2024-02-16T02:51:53;10.50;99.90
3492;DHT22;1760;52.480;13.422;2024-02-16T02:54:20;10.50;99.90
3492;DHT22;1760;52.480;13.422;2024-02-16T02:56:48;10.50;99.90
3492;DHT22;1760;52.480;13.422;2024-02-16T02:59:15;10.50;99.90
3492;DHT22;1760;52.480;13.422;2024-02-16T03:01:42;10.50;99.90
3492;DHT22;1760;52.480;13.422;2024-02-16T03:04:11;10.60;99.90
3492;DHT22;1760;52.480;13.422;2024-02-16T03:06:38;10.50;99.90
3492;DHT22;1760;52.480;13.422;2024-02-16T03:09:05;10.60;99.90
3492;DHT22;1760;52.480;13.422;2024-02-16T03:11:32;10.60;99.90
3492;DHT22;1760;52.480;13.422;2024-02-16T03:14:00;10.60;99.90
3492;DHT22;1760;52.480;13.422;2024-02-16T03:16:27;10.60;99.90
3492;DHT22;1760;52.480;13.422;2024-02-16T03:18:55;10.60;99.90
3492;DHT22;1760;52.480;13.422;2024-02-16T03:21:24;10.60;99.90
3492;DHT22;1760;52.480;13.422;2024-02-16T03:23:51;10.60;99.90
3492;DHT22;1760;52.480;13.422;2024-02-16T03:26:19;10.60;99.90
3492;DHT22;1760;52.480;13.422;2024-02-16T03:28:47;10.60;99.90
3492;DHT22;1760;52.480;13.422;2024-02-16T03:31:17;10.60;99.90
3492;DHT22;1760;52.480;13.422;2024-02-16T03:33:44;10.60;99.90
3492;DHT22;1760;52.480;13.422;2024-02-16T03:36:11;10.60;99.90
3492;DHT22;1760;52.480;13.422;2024-02-16T03:38:41;10.60;99.90
3492;DHT22;1760;52.480;13.422;2024-02-16T03:41:12;10.60;99.90
3492;DHT22;1760;52.480;13.422;2024-02-16T03:43:39;10.70;99.90
3492;DHT22;1760;52.480;13.422;2024-02-16T03:46:06;10.70;99.90
3492;DHT22;1760;52.480;13.422;2024-02-16T03:48:35;10.70;99.90
3492;DHT22;1760;52.480;13.422;2024-02-16T03:51:02;10.70;99.90
3492;DHT22;1760;52.480;13.422;2024-02-16T03:53:29;10.70;99.90
3492;DHT22;1760;52.480;13.422;2024-02-16T03:55:56;10.70;99.90
3492;DHT22;1760;52.480;13.422;2024-02-16T03:58:27;10.70;99.90
3492;DHT22;1760;52.480;13.422;2024-02-16T04:00:54;10.70;99.90
3492;DHT22;1760;52.480;13.422;2024-02-16T04:03:20;10.60;99.90
3492;DHT22;1760;52.480;13.422;2024-02-16T04:05:49;10.60;99.90
3492;DHT22;1760;52.480;13.422;2024-02-16T04:08:16;10.60;99.90
3492;DHT22;1760;52.480;13.422;2024-02-16T04:10:43;10.60;99.90
3492;DHT22;1760;52.480;13.422;2024-02-16T04:13:11;10.60;99.90
3492;DHT22;1760;52.480;13.422;2024-02-16T04:15:38;10.60;99.90
3492;DHT22;1760;52.480;13.422;2024-02-16T04:18:05;10.60;99.90
3492;DHT22;1760;52.480;13.422;2024-02-16T04:20:32;10.60;99.90
3492;DHT22;1760;52.480;13.422;2024-02-16T04:23:00;10.60;99.90
3492;DHT22;1760;52.480;13.422;2024-02-16T04:25:27;10.60;99.90
3492;DHT22;1760;52.480;13.422;2024-02-16T04:27:54;10.60;99.90
3492;DHT22;1760;52.480;13.422;2024-02-16T04:30:21;10.60;99.90
3492;DHT22;1760;52.480;13.422;2024-02-16T04:32:48;10.60;99.90
3492;DHT22;1760;52.480;13.422;2024-02-16T04:35:15;10.60;99.90
3492;DHT22;1760;52.480;13.422;2024-02-16T04:37:42;10.70;99.90
3492;DHT22;1760;52.480;13.422;2024-02-16T04:40:11;10.60;99.90
3492;DHT22;1760;52.480;13.422;2024-02-16T04:42:40;10.70;99.90
3492;DHT22;1760;52.480;13.422;2024-02-16T04:45:11;10.60;99.90
3492;DHT22;1760;52.480;13.422;2024-02-16T04:47:38;10.60;99.90
3492;DHT22;1760;52.480;13.422;2024-02-16T04:50:06;10.60;99.90
3492;DHT22;1760;52.480;13.422;2024-02-16T04:52:36;10.60;99.90
3492;DHT22;1760;52.480;13.422;2024-02-16T04:55:05;10.60;99.90
3492;DHT22;1760;52.480;13.422;2024-02-16T04:57:33;10.60;99.90
3492;DHT22;1760;52.480;13.422;2024-02-16T05:00:00;10.60;99.90
3492;DHT22;1760;52.480;13.422;2024-02-16T05:02:27;10.60;99.90
3492;DHT22;1760;52.480;13.422;2024-02-16T05:04:54;10.60;99.90
3492;DHT22;1760;52.480;13.422;2024-02-16T05:07:21;10.60;99.90
3492;DHT22;1760;52.480;13.422;2024-02-16T05:09:48;10.60;99.90
3492;DHT22;1760;52.480;13.422;2024-02-16T05:12:21;10.60;99.90
3492;DHT22;1760;52.480;13.422;2024-02-16T05:14:50;10.60;99.90
3492;DHT22;1760;52.480;13.422;2024-02-16T05:17:18;10.60;99.90
3492;DHT22;1760;52.480;13.422;2024-02-16T05:19:46;10.60;99.90
3492;DHT22;1760;52.480;13.422;2024-02-16T05:22:13;10.60;99.90
3492;DHT22;1760;52.480;13.422;2024-02-16T05:24:40;10.60;99.90
3492;DHT22;1760;52.480;13.422;2024-02-16T05:27:07;10.50;99.90
3492;DHT22;1760;52.480;13.422;2024-02-16T05:29:36;10.50;99.90
3492;DHT22;1760;52.480;13.422;2024-02-16T05:32:04;10.40;99.90
3492;DHT22;1760;52.480;13.422;2024-02-16T05:34:31;10.40;99.90
3492;DHT22;1760;52.480;13.422;2024-02-16T05:37:03;10.40;99.90
3492;DHT22;1760;52.480;13.422;2024-02-16T05:39:31;10.40;99.90
3492;DHT22;1760;52.480;13.422;2024-02-16T05:42:01;10.40;99.90
3492;DHT22;1760;52.480;13.422;2024-02-16T05:44:28;10.40;99.90
3492;DHT22;1760;52.480;13.422;2024-02-16T05:46:55;10.30;99.90
3492;DHT22;1760;52.480;13.422;2024-02-16T05:49:24;10.30;99.90
3492;DHT22;1760;52.480;13.422;2024-02-16T05:51:51;10.30;99.90
3492;DHT22;1760;52.480;13.422;2024-02-16T05:54:41;10.30;99.90
3492;DHT22;1760;52.480;13.422;2024-02-16T05:57:08;10.30;99.90
3492;DHT22;1760;52.480;13.422;2024-02-16T05:59:35;10.20;99.90
3492;DHT22;1760;52.480;13.422;2024-02-16T06:02:04;10.20;99.90
3492;DHT22;1760;52.480;13.422;2024-02-16T06:04:32;10.20;99.90
3492;DHT22;1760;52.480;13.422;2024-02-16T06:06:59;10.20;99.90
3492;DHT22;1760;52.480;13.422;2024-02-16T06:09:26;10.20;99.90
3492;DHT22;1760;52.480;13.422;2024-02-16T06:12:00;10.10;99.90
3492;DHT22;1760;52.480;13.422;2024-02-16T06:14:29;10.10;99.90
3492;DHT22;1760;52.480;13.422;2024-02-16T06:16:55;10.10;99.90
3492;DHT22;1760;52.480;13.422;2024-02-16T06:19:22;10.10;99.90
3492;DHT22;1760;52.480;13.422;2024-02-16T06:21:51;10.20;99.90
3492;DHT22;1760;52.480;13.422;2024-02-16T06:24:17;10.20;99.90
3492;DHT22;1760;52.480;13.422;2024-02-16T06:26:45;10.20;99.90
3492;DHT22;1760;52.480;13.422;2024-02-16T06:29:12;10.10;99.90
3492;DHT22;1760;52.480;13.422;2024-02-16T06:31:39;10.10;99.90
3492;DHT22;1760;52.480;13.422;2024-02-16T06:34:06;10.10;99.90
3492;DHT22;1760;52.480;13.422;2024-02-16T06:36:33;10.20;99.90
3492;DHT22;1760;52.480;13.422;2024-02-16T06:39:02;10.20;99.90
3492;DHT22;1760;52.480;13.422;2024-02-16T06:41:29;10.40;99.90
3492;DHT22;1760;52.480;13.422;2024-02-16T06:43:56;10.30;99.90
3492;DHT22;1760;52.480;13.422;2024-02-16T06:46:23;10.40;99.90
3492;DHT22;1760;52.480;13.422;2024-02-16T06:48:50;10.40;99.90
3492;DHT22;1760;52.480;13.422;2024-02-16T06:51:17;10.40;99.90
3492;DHT22;1760;52.480;13.422;2024-02-16T06:53:44;10.50;99.90
3492;DHT22;1760;52.480;13.422;2024-02-16T06:56:13;10.50;99.90
3492;DHT22;1760;52.480;13.422;2024-02-16T06:58:40;10.60;99.90
3492;DHT22;1760;52.480;13.422;2024-02-16T07:01:07;10.60;99.90
3492;DHT22;1760;52.480;13.422;2024-02-16T07:03:34;10.60;99.90
3492;DHT22;1760;52.480;13.422;2024-02-16T07:06:02;10.60;99.90
3492;DHT22;1760;52.480;13.422;2024-02-16T07:08:29;10.60;99.90
3492;DHT22;1760;52.480;13.422;2024-02-16T07:10:56;10.60;99.90
3492;DHT22;1760;52.480;13.422;2024-02-16T07:13:24;10.60;99.90
3492;DHT22;1760;52.480;13.422;2024-02-16T07:15:51;10.60;99.90
3492;DHT22;1760;52.480;13.422;2024-02-16T07:18:18;10.60;99.90
3492;DHT22;1760;52.480;13.422;2024-02-16T07:20:44;10.60;99.90
3492;DHT22;1760;52.480;13.422;2024-02-16T07:23:11;10.60;99.90
3492;DHT22;1760;52.480;13.422;2024-02-16T07:25:38;10.60;99.90
3492;DHT22;1760;52.480;13.422;2024-02-16T07:28:05;10.60;99.90
3492;DHT22;1760;52.480;13.422;2024-02-16T07:30:34;10.50;99.90
3492;DHT22;1760;52.480;13.422;2024-02-16T07:33:04;10.50;99.90
3492;DHT22;1760;52.480;13.422;2024-02-16T07:35:31;10.50;99.90
3492;DHT22;1760;52.480;13.422;2024-02-16T07:37:57;10.50;99.90
3492;DHT22;1760;52.480;13.422;2024-02-16T07:40:24;10.50;99.90
3492;DHT22;1760;52.480;13.422;2024-02-16T07:42:51;10.60;99.90
3492;DHT22;1760;52.480;13.422;2024-02-16T07:45:18;10.60;99.90
3492;DHT22;1760;52.480;13.422;2024-02-16T07:47:46;10.60;99.90
3492;DHT22;1760;52.480;13.422;2024-02-16T07:50:13;10.70;99.90
3492;DHT22;1760;52.480;13.422;2024-02-16T07:52:40;10.70;99.90
3492;DHT22;1760;52.480;13.422;2024-02-16T07:55:08;10.70;99.90
3492;DHT22;1760;52.480;13.422;2024-02-16T07:57:35;10.80;99.90
3492;DHT22;1760;52.480;13.422;2024-02-16T08:00:04;11.00;99.90
3492;DHT22;1760;52.480;13.422;2024-02-16T08:02:32;10.90;99.90
3492;DHT22;1760;52.480;13.422;2024-02-16T08:05:00;11.00;99.90
3492;DHT22;1760;52.480;13.422;2024-02-16T08:07:27;11.00;99.90
3492;DHT22;1760;52.480;13.422;2024-02-16T08:09:53;11.10;99.90
3492;DHT22;1760;52.480;13.422;2024-02-16T08:12:20;11.20;99.90
3492;DHT22;1760;52.480;13.422;2024-02-16T08:14:47;11.20;99.90
3492;DHT22;1760;52.480;13.422;2024-02-16T08:17:14;11.30;99.90
3492;DHT22;1760;52.480;13.422;2024-02-16T08:19:41;11.40;99.90
3492;DHT22;1760;52.480;13.422;2024-02-16T08:22:09;11.40;99.90
3492;DHT22;1760;52.480;13.422;2024-02-16T08:24:36;11.40;99.90
3492;DHT22;1760;52.480;13.422;2024-02-16T08:27:04;11.50;99.90
3492;DHT22;1760;52.480;13.422;2024-02-16T08:29:31;11.50;99.90
3492;DHT22;1760;52.480;13.422;2024-02-16T08:31:58;11.60;99.90
3492;DHT22;1760;52.480;13.422;2024-02-16T08:34:25;11.70;99.90
3492;DHT22;1760;52.480;13.422;2024-02-16T08:36:52;11.80;99.90
3492;DHT22;1760;52.480;13.422;2024-02-16T08:39:20;11.90;99.90
3492;DHT22;1760;52.480;13.422;2024-02-16T08:41:50;12.00;99.90
3492;DHT22;1760;52.480;13.422;2024-02-16T08:44:17;12.10;99.90
3492;DHT22;1760;52.480;13.422;2024-02-16T08:46:44;12.20;99.90
3492;DHT22;1760;52.480;13.422;2024-02-16T08:49:11;12.30;99.90
3492;DHT22;1760;52.480;13.422;2024-02-16T08:51:38;12.30;99.90
3492;DHT22;1760;52.480;13.422;2024-02-16T08:54:06;12.40;99.90
3492;DHT22;1760;52.480;13.422;2024-02-16T08:56:34;12.50;99.90
3492;DHT22;1760;52.480;13.422;2024-02-16T08:59:01;12.50;99.90
3492;DHT22;1760;52.480;13.422;2024-02-16T09:01:31;12.60;99.90
3492;DHT22;1760;52.480;13.422;2024-02-16T09:03:58;12.60;99.90
3492;DHT22;1760;52.480;13.422;2024-02-16T09:06:25;12.70;99.90
3492;DHT22;1760;52.480;13.422;2024-02-16T09:08:52;12.80;99.90
3492;DHT22;1760;52.480;13.422;2024-02-16T09:11:19;12.80;99.90
3492;DHT22;1760;52.480;13.422;2024-02-16T09:13:48;12.80;99.90
3492;DHT22;1760;52.480;13.422;2024-02-16T09:16:14;12.90;99.90
3492;DHT22;1760;52.480;13.422;2024-02-16T09:18:41;13.00;99.90
3492;DHT22;1760;52.480;13.422;2024-02-16T09:21:08;13.00;99.90
3492;DHT22;1760;52.480;13.422;2024-02-16T09:23:36;13.20;99.90
3492;DHT22;1760;52.480;13.422;2024-02-16T09:26:04;13.70;99.90
3492;DHT22;1760;52.480;13.422;2024-02-16T09:28:31;13.60;99.90
3492;DHT22;1760;52.480;13.422;2024-02-16T09:31:00;13.70;99.90
3492;DHT22;1760;52.480;13.422;2024-02-16T09:33:26;13.80;99.90
3492;DHT22;1760;52.480;13.422;2024-02-16T09:35:53;13.90;99.90
3492;DHT22;1760;52.480;13.422;2024-02-16T09:38:20;13.90;99.90
3492;DHT22;1760;52.480;13.422;2024-02-16T09:40:47;14.10;99.90
3492;DHT22;1760;52.480;13.422;2024-02-16T09:43:24;14.10;99.90
3492;DHT22;1760;52.480;13.422;2024-02-16T09:45:53;14.30;99.90
3492;DHT22;1760;52.480;13.422;2024-02-16T09:48:21;14.30;99.90
3492;DHT22;1760;52.480;13.422;2024-02-16T09:50:49;14.30;99.90
3492;DHT22;1760;52.480;13.422;2024-02-16T09:53:17;14.20;99.90
3492;DHT22;1760;52.480;13.422;2024-02-16T09:55:45;14.10;99.90
3492;DHT22;1760;52.480;13.422;2024-02-16T09:58:12;14.00;99.90
3492;DHT22;1760;52.480;13.422;2024-02-16T10:00:47;14.00;99.90
3492;DHT22;1760;52.480;13.422;2024-02-16T10:03:23;14.10;99.90
3492;DHT22;1760;52.480;13.422;2024-02-16T10:05:50;14.20;99.90
3492;DHT22;1760;52.480;13.422;2024-02-16T10:08:18;14.20;99.90
3492;DHT22;1760;52.480;13.422;2024-02-16T10:10:44;14.20;99.90
3492;DHT22;1760;52.480;13.422;2024-02-16T10:13:11;14.20;99.90
3492;DHT22;1760;52.480;13.422;2024-02-16T10:15:38;14.20;99.90
3492;DHT22;1760;52.480;13.422;2024-02-16T10:18:05;14.30;99.90
3492;DHT22;1760;52.480;13.422;2024-02-16T10:20:35;14.30;99.90
3492;DHT22;1760;52.480;13.422;2024-02-16T10:23:03;14.40;99.90
3492;DHT22;1760;52.480;13.422;2024-02-16T10:25:30;14.50;99.90
3492;DHT22;1760;52.480;13.422;2024-02-16T10:27:57;14.50;99.90
3492;DHT22;1760;52.480;13.422;2024-02-16T10:30:29;14.50;99.90
3492;DHT22;1760;52.480;13.422;2024-02-16T10:32:57;14.60;99.90
3492;DHT22;1760;52.480;13.422;2024-02-16T10:35:25;14.50;99.90
3492;DHT22;1760;52.480;13.422;2024-02-16T10:37:54;14.50;99.90
3492;DHT22;1760;52.480;13.422;2024-02-16T10:40:22;14.60;99.90
3492;DHT22;1760;52.480;13.422;2024-02-16T10:42:50;14.70;99.90
3492;DHT22;1760;52.480;13.422;2024-02-16T10:45:17;14.60;99.90
3492;DHT22;1760;52.480;13.422;2024-02-16T10:47:45;14.50;99.90
3492;DHT22;1760;52.480;13.422;2024-02-16T10:50:12;14.50;99.90
3492;DHT22;1760;52.480;13.422;2024-02-16T10:52:41;14.50;99.90
3492;DHT22;1760;52.480;13.422;2024-02-16T10:55:11;14.50;99.90
3492;DHT22;1760;52.480;13.422;2024-02-16T10:57:39;14.40;99.90
3492;DHT22;1760;52.480;13.422;2024-02-16T11:00:10;14.40;99.90
3492;DHT22;1760;52.480;13.422;2024-02-16T11:02:53;14.40;99.90
3492;DHT22;1760;52.480;13.422;2024-02-16T11:05:32;14.50;99.90
3492;DHT22;1760;52.480;13.422;2024-02-16T11:08:01;14.50;99.90
3492;DHT22;1760;52.480;13.422;2024-02-16T11:10:29;14.60;99.90
3492;DHT22;1760;52.480;13.422;2024-02-16T11:13:01;14.60;99.90
3492;DHT22;1760;52.480;13.422;2024-02-16T11:15:30;14.60;99.90
3492;DHT22;1760;52.480;13.422;2024-02-16T11:17:57;14.60;99.90
3492;DHT22;1760;52.480;13.422;2024-02-16T11:20:25;14.60;99.90
3492;DHT22;1760;52.480;13.422;2024-02-16T11:22:52;14.60;99.90
3492;DHT22;1760;52.480;13.422;2024-02-16T11:25:31;14.70;99.90
3492;DHT22;1760;52.480;13.422;2024-02-16T11:27:58;14.80;99.90
3492;DHT22;1760;52.480;13.422;2024-02-16T11:30:25;14.90;99.90
3492;DHT22;1760;52.480;13.422;2024-02-16T11:32:52;14.90;99.90
3492;DHT22;1760;52.480;13.422;2024-02-16T11:35:19;15.10;99.90
3492;DHT22;1760;52.480;13.422;2024-02-16T11:37:46;15.20;99.90
3492;DHT22;1760;52.480;13.422;2024-02-16T11:40:13;15.30;99.90
3492;DHT22;1760;52.480;13.422;2024-02-16T11:42:41;15.40;99.90
3492;DHT22;1760;52.480;13.422;2024-02-16T11:45:10;15.60;99.90
3492;DHT22;1760;52.480;13.422;2024-02-16T11:47:38;15.80;99.90
3492;DHT22;1760;52.480;13.422;2024-02-16T11:50:07;16.10;99.90
3492;DHT22;1760;52.480;13.422;2024-02-16T11:52:36;16.30;99.90
3492;DHT22;1760;52.480;13.422;2024-02-16T11:55:04;16.50;99.90
3492;DHT22;1760;52.480;13.422;2024-02-16T11:57:37;16.50;99.90
3492;DHT22;1760;52.480;13.422;2024-02-16T12:00:07;16.70;99.90
3492;DHT22;1760;52.480;13.422;2024-02-16T12:02:36;16.80;99.90
3492;DHT22;1760;52.480;13.422;2024-02-16T12:05:03;17.00;99.90
3492;DHT22;1760;52.480;13.422;2024-02-16T12:07:31;17.10;99.90
3492;DHT22;1760;52.480;13.422;2024-02-16T12:10:00;17.20;99.90
3492;DHT22;1760;52.480;13.422;2024-02-16T12:12:28;17.30;99.90
3492;DHT22;1760;52.480;13.422;2024-02-16T12:14:55;17.30;99.90
3492;DHT22;1760;52.480;13.422;2024-02-16T12:17:24;17.30;99.90
3492;DHT22;1760;52.480;13.422;2024-02-16T12:19:51;17.30;99.90
3492;DHT22;1760;52.480;13.422;2024-02-16T12:22:19;17.20;99.90
3492;DHT22;1760;52.480;13.422;2024-02-16T12:24:46;17.20;99.90
3492;DHT22;1760;52.480;13.422;2024-02-16T12:27:13;17.10;99.90
3492;DHT22;1760;52.480;13.422;2024-02-16T12:29:41;17.30;99.90
3492;DHT22;1760;52.480;13.422;2024-02-16T12:32:08;17.30;99.90
3492;DHT22;1760;52.480;13.422;2024-02-16T12:34:37;17.10;99.90
3492;DHT22;1760;52.480;13.422;2024-02-16T12:37:04;17.10;99.90
3492;DHT22;1760;52.480;13.422;2024-02-16T12:39:33;17.10;99.90
3492;DHT22;1760;52.480;13.422;2024-02-16T12:42:00;17.20;99.90
3492;DHT22;1760;52.480;13.422;2024-02-16T12:44:27;17.10;99.90
3492;DHT22;1760;52.480;13.422;2024-02-16T12:46:54;17.10;99.90
3492;DHT22;1760;52.480;13.422;2024-02-16T12:49:21;17.20;99.90
3492;DHT22;1760;52.480;13.422;2024-02-16T12:51:49;17.20;99.90
3492;DHT22;1760;52.480;13.422;2024-02-16T12:54:17;17.30;99.90
3492;DHT22;1760;52.480;13.422;2024-02-16T12:56:44;17.30;99.90
3492;DHT22;1760;52.480;13.422;2024-02-16T13:01:47;17.30;99.90
3492;DHT22;1760;52.480;13.422;2024-02-16T13:04:14;17.20;99.90
3492;DHT22;1760;52.480;13.422;2024-02-16T13:06:46;17.20;99.90
3492;DHT22;1760;52.480;13.422;2024-02-16T13:09:14;17.20;99.90
3492;DHT22;1760;52.480;13.422;2024-02-16T13:11:41;17.10;99.90
3492;DHT22;1760;52.480;13.422;2024-02-16T13:14:08;17.10;99.90
3492;DHT22;1760;52.480;13.422;2024-02-16T13:16:35;17.10;99.90
3492;DHT22;1760;52.480;13.422;2024-02-16T13:19:02;17.10;99.90
3492;DHT22;1760;52.480;13.422;2024-02-16T13:21:29;17.10;99.90
3492;DHT22;1760;52.480;13.422;2024-02-16T13:23:56;17.10;99.90
3492;DHT22;1760;52.480;13.422;2024-02-16T13:26:25;17.10;99.90
3492;DHT22;1760;52.480;13.422;2024-02-16T13:28:52;17.10;99.90
3492;DHT22;1760;52.480;13.422;2024-02-16T13:31:20;17.00;99.90
3492;DHT22;1760;52.480;13.422;2024-02-16T13:33:47;16.90;99.90
3492;DHT22;1760;52.480;13.422;2024-02-16T13:36:14;16.90;99.90
3492;DHT22;1760;52.480;13.422;2024-02-16T13:38:41;17.00;99.90
3492;DHT22;1760;52.480;13.422;2024-02-16T13:41:08;17.00;99.90
3492;DHT22;1760;52.480;13.422;2024-02-16T13:43:36;16.90;99.90
3492;DHT22;1760;52.480;13.422;2024-02-16T13:46:06;16.80;99.90
3492;DHT22;1760;52.480;13.422;2024-02-16T13:48:33;16.80;99.90
3492;DHT22;1760;52.480;13.422;2024-02-16T13:51:02;16.70;99.90
3492;DHT22;1760;52.480;13.422;2024-02-16T13:53:32;16.70;99.90
3492;DHT22;1760;52.480;13.422;2024-02-16T13:55:59;16.70;99.90
3492;DHT22;1760;52.480;13.422;2024-02-16T13:58:29;16.70;99.90
3492;DHT22;1760;52.480;13.422;2024-02-16T14:00:58;16.60;99.90
3492;DHT22;1760;52.480;13.422;2024-02-16T14:03:25;16.60;99.90
3492;DHT22;1760;52.480;13.422;2024-02-16T14:05:52;16.50;99.90
3492;DHT22;1760;52.480;13.422;2024-02-16T14:08:19;16.50;99.90
3492;DHT22;1760;52.480;13.422;2024-02-16T14:10:46;16.40;99.90
3492;DHT22;1760;52.480;13.422;2024-02-16T14:13:13;16.40;99.90
3492;DHT22;1760;52.480;13.422;2024-02-16T14:15:41;16.30;99.90
3492;DHT22;1760;52.480;13.422;2024-02-16T14:18:10;16.30;99.90
3492;DHT22;1760;52.480;13.422;2024-02-16T14:20:37;16.30;99.90
3492;DHT22;1760;52.480;13.422;2024-02-16T14:23:04;16.30;99.90
3492;DHT22;1760;52.480;13.422;2024-02-16T14:25:33;16.30;99.90
3492;DHT22;1760;52.480;13.422;2024-02-16T14:28:00;16.30;99.90
3492;DHT22;1760;52.480;13.422;2024-02-16T14:30:27;16.30;99.90
3492;DHT22;1760;52.480;13.422;2024-02-16T14:32:54;16.30;99.90
3492;DHT22;1760;52.480;13.422;2024-02-16T14:35:22;16.30;99.90
3492;DHT22;1760;52.480;13.422;2024-02-16T14:37:50;16.30;99.90
3492;DHT22;1760;52.480;13.422;2024-02-16T14:40:16;16.30;99.90
3492;DHT22;1760;52.480;13.422;2024-02-16T14:42:44;16.40;99.90
3492;DHT22;1760;52.480;13.422;2024-02-16T14:45:11;16.30;99.90
3492;DHT22;1760;52.480;13.422;2024-02-16T14:47:44;16.30;99.90
3492;DHT22;1760;52.480;13.422;2024-02-16T14:50:12;16.30;99.90
3492;DHT22;1760;52.480;13.422;2024-02-16T14:52:41;16.30;99.90
3492;DHT22;1760;52.480;13.422;2024-02-16T14:55:11;16.30;99.90
3492;DHT22;1760;52.480;13.422;2024-02-16T14:57:39;16.20;99.90
3492;DHT22;1760;52.480;13.422;2024-02-16T15:00:13;16.20;99.90
3492;DHT22;1760;52.480;13.422;2024-02-16T15:02:40;16.20;99.90
3492;DHT22;1760;52.480;13.422;2024-02-16T15:05:08;16.20;99.90
3492;DHT22;1760;52.480;13.422;2024-02-16T15:07:35;16.20;99.90
3492;DHT22;1760;52.480;13.422;2024-02-16T15:10:04;16.30;99.90
3492;DHT22;1760;52.480;13.422;2024-02-16T15:12:31;16.40;99.90
3492;DHT22;1760;52.480;13.422;2024-02-16T15:14:58;16.40;99.90
3492;DHT22;1760;52.480;13.422;2024-02-16T15:17:25;16.30;99.90
3492;DHT22;1760;52.480;13.422;2024-02-16T15:19:53;16.30;99.90
3492;DHT22;1760;52.480;13.422;2024-02-16T15:22:20;16.20;99.90
3492;DHT22;1760;52.480;13.422;2024-02-16T15:24:47;16.20;99.90
3492;DHT22;1760;52.480;13.422;2024-02-16T15:27:15;16.20;99.90
3492;DHT22;1760;52.480;13.422;2024-02-16T15:29:42;16.20;99.90
3492;DHT22;1760;52.480;13.422;2024-02-16T15:32:10;16.20;99.90
3492;DHT22;1760;52.480;13.422;2024-02-16T15:34:37;16.10;99.90
3492;DHT22;1760;52.480;13.422;2024-02-16T15:37:04;16.20;99.90
3492;DHT22;1760;52.480;13.422;2024-02-16T15:39:31;16.10;99.90
3492;DHT22;1760;52.480;13.422;2024-02-16T15:41:58;16.10;99.90
3492;DHT22;1760;52.480;13.422;2024-02-16T15:44:27;16.10;99.90
3492;DHT22;1760;52.480;13.422;2024-02-16T15:46:54;16.10;99.90
3492;DHT22;1760;52.480;13.422;2024-02-16T15:49:21;16.10;99.90
3492;DHT22;1760;52.480;13.422;2024-02-16T15:51:48;16.10;99.90